Latest Weather Observations for Amberley

IDQ60901

Issued at 6:01 am EST Friday 21 January 2022 (issued every 10 minutes, with the page automatically refreshed every 10 minutes)

About weather observations | Map of Brisbane area stations | Latest observations for Brisbane area | Other Formats
Station Details ID: 040004 Name: AMBERLEY AMO Lat: -27.63 Lon: 152.71 Height: 24.2 m
Data from the previous 72 hours. | See also: Recent months at Amberley
Date/Time
EST
Temp
°C
App
Temp
°C
Dew
Point
°C
Rel
Hum
%
Delta-T
°C
Wind Press
QNH
hPa
Press
MSL
hPa
Rain since
9am
mm
Dir  Spd
km/h
Gust
km/h
Spd
kts
Gust
kts
21/05:30am 17.3 18.0 15.6 90 1.0 S 6 7 3 4 1019.6 1019.5 3.4
21/05:00am 17.7 18.0 16.0 90 1.0 S 9 9 5 5 1019.3 1019.2 3.4
21/04:30am 17.6 19.7 16.3 92 0.8 CALM 0 0 0 0 1019.1 1019.0 3.4
21/04:00am 17.5 19.5 16.0 91 0.9 CALM 0 4 0 2 1019.0 1018.9 3.4
21/03:30am 17.6 17.9 15.9 90 1.0 S 9 11 5 6 1018.9 1018.8 3.4
21/03:00am 18.8 19.8 16.4 86 1.4 SSW 6 9 3 5 1018.9 1018.8 3.4
21/02:30am 18.7 19.4 17.0 90 1.0 S 9 11 5 6 1018.9 1018.8 3.4
21/02:00am 18.3 18.3 16.3 88 1.2 S 11 13 6 7 1019.0 1018.9 3.4
21/01:30am 19.4 19.5 16.4 83 1.8 SSE 11 13 6 7 1018.9 1018.8 3.4
21/01:00am 19.2 19.3 16.6 85 1.6 SSE 11 13 6 7 1019.0 1018.9 3.4
21/12:30am 19.9 21.0 16.5 81 2.0 SSW 6 7 3 4 1019.1 1019.0 3.4
21/12:00am 20.0 21.0 16.8 82 1.9 SSW 7 9 4 5 1019.4 1019.3 3.4
 
Date/Time
EST
Temp
°C
App
Temp
°C
Dew
Point
°C
Rel
Hum
%
Delta-T
°C
Wind Press
QNH
hPa
Press
MSL
hPa
Rain since
9am
mm
Dir  Spd
km/h
Gust
km/h
Spd
kts
Gust
kts
20/11:30pm 20.5 21.5 17.7 84 1.7 S 9 13 5 7 1019.4 1019.3 3.4
20/11:00pm 21.2 21.6 18.2 83 1.9 S 13 17 7 9 1019.5 1019.4 3.4
20/10:30pm 21.5 22.6 18.9 85 1.6 S 11 15 6 8 1019.5 1019.4 3.4
20/10:00pm 21.7 23.6 19.8 89 1.2 S 9 11 5 6 1019.5 1019.4 3.4
20/09:30pm 21.6 23.7 20.2 92 0.9 SSE 9 13 5 7 1019.2 1019.1 3.4
20/09:00pm 21.7 24.3 20.5 93 0.8 SSE 7 9 4 5 1019.1 1019.0 3.4
20/08:30pm 21.8 23.9 20.1 90 1.1 SSE 9 11 5 6 1018.9 1018.8 3.4
20/08:00pm 22.3 22.1 19.7 85 1.7 SE 20 28 11 15 1018.7 1018.6 3.4
20/07:30pm 22.3 22.1 19.7 85 1.7 SE 20 28 11 15 1018.3 1018.2 3.4
20/07:00pm 22.5 23.0 19.3 82 2.0 SSE 15 20 8 11 1018.0 1017.9 3.4
20/06:30pm 22.8 22.9 19.2 80 2.3 SE 17 22 9 12 1017.5 1017.4 3.4
20/06:00pm 22.7 22.4 19.5 82 2.0 SE 20 37 11 20 1017.2 1017.1 3.4
20/05:35pm 22.7 23.1 20.6 88 1.4 SE 19 26 10 14 1016.8 1016.7 3.4
20/05:30pm 22.7 22.8 20.4 87 1.5 SE 20 32 11 17 1016.7 1016.6 3.4
20/05:16pm 23.2 23.9 20.5 85 1.8 SSE 17 28 9 15 1016.8 1016.7 3.0
20/05:00pm 24.7 24.9 20.2 76 2.9 ESE 19 24 10 13 1016.3 1016.2 1.4
20/04:30pm 24.8 25.0 20.1 75 3.1 SE 19 30 10 16 1016.1 1016.0 1.4
20/04:00pm 24.5 26.0 20.6 79 2.5 ESE 13 15 7 8 1016.1 1016.0 1.4
20/03:30pm 25.0 25.3 20.7 77 2.8 SE 20 30 11 16 1016.1 1016.0 1.2
20/03:00pm 25.0 26.5 21.3 80 2.4 SSE 15 20 8 11 1015.9 1015.8 1.2
20/02:30pm 26.6 26.0 20.4 68 4.1 S 24 35 13 19 1015.5 1015.4 1.2
20/02:00pm 26.5 26.9 21.0 72 3.6 SSE 20 28 11 15 1015.6 1015.5 1.2
20/01:30pm 26.4 27.2 20.7 71 3.7 S 17 26 9 14 1015.6 1015.5 1.2
20/01:00pm 25.4 25.8 20.9 76 3.0 S 20 28 11 15 1015.8 1015.7 1.2
20/12:30pm 24.9 25.9 21.0 79 2.6 S 17 24 9 13 1015.8 1015.7 1.2
20/12:00pm 24.6 26.2 21.5 83 2.1 S 15 19 8 10 1016.1 1016.0 1.2
20/11:30am 23.9 25.2 21.6 87 1.5 S 17 22 9 12 1016.1 1016.0 1.2
20/11:00am 23.8 25.7 22.1 90 1.1 SSE 15 19 8 10 1016.5 1016.4 1.2
20/10:30am 23.3 25.0 21.7 91 1.1 ESE 15 19 8 10 1016.6 1016.5 1.0
20/10:24am 23.3 25.0 21.7 91 1.1 E 15 19 8 10 1016.6 1016.5 1.0
20/10:06am 23.9 24.9 21.0 84 1.9 E 17 20 9 11 1016.6 1016.5 0.0
20/10:00am 24.3 25.8 21.2 83 2.0 ESE 15 20 8 11 1016.5 1016.4 0.0
20/09:30am 25.1 26.5 20.4 75 3.1 SE 13 19 7 10 1016.0 1015.9 0.0
20/09:00am 24.8 27.0 21.1 80 2.4 S 11 15 6 8 1016.0 1015.9 65.0
20/08:30am 24.4 27.4 20.9 81 2.3 SSW 6 7 3 4 1015.8 1015.7 65.0
20/08:00am 24.2 28.1 21.1 83 2.0 ENE 2 7 1 4 1015.5 1015.4 65.0
20/07:30am 23.5 26.6 21.4 88 1.4 ENE 7 9 4 5 1015.5 1015.4 65.0
20/07:00am 23.0 26.1 21.5 91 1.0 SSE 7 9 4 5 1015.1 1015.0 65.0
20/06:30am 22.3 26.7 21.3 94 0.7 CALM 0 0 0 0 1015.0 1014.9 65.0
20/06:00am 22.0 25.4 21.0 94 0.7 S 4 7 2 4 1015.0 1014.9 65.0
20/05:30am 21.7 25.0 20.7 94 0.6 S 4 7 2 4 1014.7 1014.6 65.0
20/05:00am 21.9 26.1 20.9 94 0.7 CALM 0 0 0 0 1014.4 1014.3 65.0
20/04:30am 21.8 25.8 20.6 93 0.8 CALM 0 2 0 1 1014.1 1014.0 65.0
20/04:26am 21.7 25.3 20.5 93 0.8 S 2 6 1 3 1013.9 1013.8 65.0
20/04:00am 21.7 23.9 20.5 93 0.8 S 9 11 5 6 1013.6 1013.5 64.8
20/03:54am 21.8 24.1 20.6 93 0.8 S 9 11 5 6 1013.6 1013.5 64.8
20/03:30am 21.8 24.1 20.6 93 0.8 SSE 9 13 5 7 1013.5 1013.4 64.8
20/03:00am 21.6 23.4 20.4 93 0.8 SE 11 17 6 9 1013.6 1013.5 64.8
20/02:52am 21.7 23.9 20.5 93 0.8 SSE 9 13 5 7 1013.7 1013.6 64.8
20/02:44am 21.8 24.0 20.4 92 0.9 SSE 9 13 5 7 1013.6 1013.5 64.8
20/02:38am 21.9 24.1 20.5 92 0.9 S 9 11 5 6 1013.6 1013.5 64.6
20/02:30am 22.1 24.4 20.6 91 1.0 SSW 9 9 5 5 1013.7 1013.6 64.6
20/02:28am 22.0 24.6 20.5 91 1.0 SSW 7 9 4 5 1013.7 1013.6 64.6
20/02:00am 22.3 24.9 20.4 89 1.2 SSW 7 9 4 5 1013.5 1013.4 64.4
20/01:30am 22.3 25.5 20.4 89 1.2 SSW 4 7 2 4 1013.6 1013.5 64.4
20/01:00am 22.3 24.8 20.2 88 1.4 SSW 7 9 4 5 1013.7 1013.6 64.4
20/12:30am 22.3 23.9 20.0 87 1.5 SSW 11 15 6 8 1013.8 1013.7 64.4
20/12:00am 22.5 23.7 20.0 86 1.6 SSW 13 17 7 9 1013.9 1013.8 64.4
 
Date/Time
EST
Temp
°C
App
Temp
°C
Dew
Point
°C
Rel
Hum
%
Delta-T
°C
Wind Press
QNH
hPa
Press
MSL
hPa
Rain since
9am
mm
Dir  Spd
km/h
Gust
km/h
Spd
kts
Gust
kts
19/11:30pm 22.4 24.2 20.3 88 1.4 SSW 11 15 6 8 1014.1 1014.0 64.4
19/11:00pm 22.7 25.1 20.8 89 1.2 SSW 9 15 5 8 1014.4 1014.3 64.4
19/10:30pm 22.8 25.9 21.4 92 0.9 SSW 7 9 4 5 1014.5 1014.4 64.4
19/10:00pm 22.7 25.8 21.5 93 0.8 S 7 11 4 6 1014.6 1014.5 64.4
19/09:30pm 22.6 24.6 21.6 94 0.7 SSE 13 17 7 9 1014.5 1014.4 64.4
19/09:27pm 22.7 24.3 21.5 93 0.8 S 15 19 8 10 1014.5 1014.4 64.4
19/09:00pm 22.8 25.4 22.0 95 0.5 SSW 11 15 6 8 1014.3 1014.2 64.4
19/08:30pm 22.3 23.4 21.3 94 0.7 ENE 17 30 9 16 1013.8 1013.7 63.4
19/08:03pm 23.1 25.9 22.3 95 0.5 SSE 11 17 6 9 1013.5 1013.4 55.8
19/08:00pm 23.2 26.1 22.4 95 0.5 S 11 17 6 9 1013.4 1013.3 53.6
19/07:45pm 23.1 25.5 22.3 95 0.5 SSW 13 20 7 11 1013.1 1013.0 53.2
19/07:30pm 23.1 25.5 22.3 95 0.5 SSW 13 17 7 9 1012.9 1012.8 52.6
19/07:00pm 23.4 26.3 22.4 94 0.7 SW 11 13 6 7 1012.4 1012.3 50.2
19/06:30pm 23.4 26.9 22.2 93 0.8 NNE 7 11 4 6 1012.2 1012.1 50.0
19/06:22pm 23.3 27.3 22.1 93 0.8 NNE 4 7 2 4 1012.1 1012.0 50.0
19/06:00pm 23.2 24.1 22.0 93 0.8 ENE 20 28 11 15 1011.6 1011.5 49.0
19/05:41pm 23.6 23.0 22.0 91 1.1 E 28 35 15 19 1011.1 1011.0 44.0
19/05:30pm 24.5 26.6 23.1 92 0.9 E 17 30 9 16 1010.9 1010.8 43.2
19/05:05pm 24.1 29.2 22.7 92 0.9 CALM 0 6 0 3 1010.3 1010.1 43.2
19/05:00pm 24.0 28.3 22.6 92 0.9 E 4 7 2 4 1010.3 1010.1 43.2
19/04:30pm 23.8 24.2 22.4 92 0.9 ESE 24 32 13 17 1010.3 1010.1 40.8
19/04:28pm 23.9 24.3 22.5 92 0.9 ESE 24 33 13 18 1010.3 1010.1 40.6
19/04:20pm 24.1 24.9 22.5 91 1.1 ESE 22 33 12 18 1010.2 1010.0 39.6
19/04:00pm 24.0 25.1 22.3 90 1.1 E 20 30 11 16 1010.1 1009.9 38.6
19/03:49pm 24.1 25.3 22.5 91 1.1 ESE 20 32 11 17 1010.1 1009.9 30.8
19/03:37pm 25.1 26.9 21.8 82 2.2 ESE 15 30 8 16 1009.7 1009.5 22.0
19/03:30pm 24.9 26.0 22.0 84 1.9 NNE 19 32 10 17 1009.6 1009.4 17.8
19/03:07pm 26.0 27.3 21.7 77 2.9 SSW 17 32 9 17 1009.4 1009.2 3.0
19/03:00pm 27.6 29.9 21.4 69 4.1 S 11 17 6 9 1009.4 1009.2 1.0
19/02:30pm 31.5 32.2 20.4 51 7.4 E 17 24 9 13 1009.4 1009.2 0.0
19/02:00pm 32.2 33.7 18.8 45 8.7 NNE 9 15 5 8 1009.7 1009.5 0.0
19/01:30pm 33.3 35.7 19.7 44 9.0 S 6 13 3 7 1009.9 1009.7 0.0
19/01:00pm 32.2 33.7 18.8 45 8.7 S 9 13 5 7 1010.2 1010.0 0.0
19/12:30pm 32.1 33.1 19.4 47 8.3 SSE 13 15 7 8 1010.4 1010.2 0.0
19/12:00pm 32.6 34.9 19.8 46 8.5 E 7 13 4 7 1010.6 1010.5 0.0
19/11:30am 31.4 32.8 18.7 46 8.2 NNE 9 15 5 8 1010.9 1010.8 0.0
19/11:00am 31.6 33.6 19.2 47 8.1 SSW 7 13 4 7 1011.3 1011.2 0.0
19/10:30am 30.4 32.4 20.0 53 6.9 NW 9 13 5 7 1011.6 1011.5 0.0
19/10:00am 30.2 32.4 20.4 55 6.5 WSW 9 13 5 7 1011.9 1011.8 0.0
19/09:30am 29.5 31.4 19.8 56 6.4 SE 9 13 5 7 1012.0 1011.9 0.0
19/09:00am 29.0 31.7 20.7 61 5.5 SW 7 11 4 6 1012.1 1012.0 0.0
19/08:30am 27.7 30.3 20.5 65 4.7 W 7 9 4 5 1012.4 1012.3 0.0
19/08:00am 27.6 31.0 21.6 70 4.0 SSE 6 11 3 6 1012.3 1012.2 0.0
19/07:30am 27.5 31.5 22.7 75 3.3 ESE 6 9 3 5 1012.3 1012.2 0.0
19/07:00am 25.8 30.5 22.7 83 2.1 ESE 2 6 1 3 1012.0 1011.9 0.0
19/06:30am 23.5 26.7 22.3 93 0.8 ESE 9 11 5 6 1011.6 1011.5 0.0
19/06:00am 22.1 26.4 21.1 94 0.7 CALM 0 6 0 3 1011.2 1011.1 0.0
19/05:30am 21.8 25.8 20.6 93 0.8 CALM 0 0 0 0 1010.6 1010.5 0.0
19/05:00am 21.7 24.3 20.5 93 0.8 ESE 7 9 4 5 1010.3 1010.1 0.0
19/04:30am 21.9 25.9 20.5 92 0.9 CALM 0 0 0 0 1009.8 1009.6 0.0
19/04:00am 22.3 26.5 20.9 92 0.9 CALM 0 0 0 0 1009.6 1009.4 0.0
19/03:30am 23.0 27.4 21.3 90 1.1 CALM 0 0 0 0 1009.5 1009.3 0.0
19/03:00am 23.4 26.5 21.5 89 1.3 ESE 7 7 4 4 1009.4 1009.2 0.0
19/02:30am 23.3 26.5 21.6 90 1.1 ESE 7 9 4 5 1009.4 1009.2 0.0
19/02:00am 23.0 25.7 21.3 90 1.1 E 9 11 5 6 1009.4 1009.2 0.0
19/01:30am 23.4 27.7 21.1 87 1.5 CALM 0 0 0 0 1009.8 1009.6 0.0
19/01:00am 23.7 26.7 20.8 84 1.9 ENE 6 9 3 5 1010.1 1009.9 0.0
19/12:30am 23.9 27.7 21.0 84 1.9 ENE 2 9 1 5 1010.4 1010.2 0.0
19/12:00am 24.2 28.4 20.9 82 2.2 CALM 0 0 0 0 1010.7 1010.6 0.0
 
Date/Time
EST
Temp
°C
App
Temp
°C
Dew
Point
°C
Rel
Hum
%
Delta-T
°C
Wind Press
QNH
hPa
Press
MSL
hPa
Rain since
9am
mm
Dir  Spd
km/h
Gust
km/h
Spd
kts
Gust
kts
18/11:30pm 24.9 29.1 21.0 79 2.6 CALM 0 0 0 0 1011.1 1011.0 0.0
18/11:00pm 24.9 27.4 21.0 79 2.6 E 9 11 5 6 1011.3 1011.2 0.0
18/10:30pm 25.2 27.9 21.3 79 2.6 E 9 11 5 6 1011.5 1011.4 0.0
18/10:00pm 25.3 28.2 21.0 77 2.8 ENE 7 9 4 5 1011.8 1011.7 0.0
18/09:30pm 25.6 28.4 20.8 75 3.2 E 7 9 4 5 1011.9 1011.8 0.0
18/09:00pm 25.9 28.0 20.9 74 3.3 ENE 11 15 6 8 1011.6 1011.5 0.0
18/08:30pm 26.0 27.4 20.3 71 3.7 ENE 13 19 7 10 1011.0 1010.9 0.0
18/08:00pm 26.0 26.9 20.1 70 3.8 E 15 22 8 12 1010.6 1010.5 0.0
18/07:30pm 26.3 27.0 19.7 67 4.3 ENE 15 19 8 10 1010.2 1010.0 0.0
18/07:00pm 26.8 26.8 20.2 67 4.3 ENE 20 28 11 15 1009.5 1009.3 0.0
18/06:30pm 27.3 26.5 20.1 64 4.7 NE 24 33 13 18 1009.3 1009.1 0.0
18/06:00pm 28.0 26.8 20.0 61 5.2 ENE 26 35 14 19 1008.8 1008.6 0.0
18/05:30pm 28.8 27.6 20.0 59 5.8 ENE 26 32 14 17 1008.3 1008.1 0.0
18/05:00pm 29.8 29.2 20.4 57 6.2 ENE 24 33 13 18 1007.9 1007.7 0.0
18/04:30pm 30.4 28.8 20.0 53 6.9 ENE 28 37 15 20 1007.8 1007.6 0.0
18/04:00pm 30.4 28.8 20.0 53 6.9 ENE 28 35 15 19 1007.5 1007.3 0.0
18/03:30pm 30.4 29.2 20.9 56 6.3 ENE 28 37 15 20 1007.9 1007.7 0.0
18/03:00pm 31.5 32.8 21.7 56 6.6 NE 17 30 9 16 1008.0 1007.8 0.0
18/02:30pm 32.5 34.8 22.0 54 7.1 ENE 13 24 7 13 1008.4 1008.2 0.0
18/02:00pm 31.0 32.2 20.6 54 6.9 ENE 15 28 8 15 1008.9 1008.7 0.0
18/01:30pm 32.2 34.0 21.1 52 7.5 NE 13 20 7 11 1009.3 1009.1 0.0
18/01:00pm 31.9 33.3 21.1 52 7.3 NE 15 22 8 12 1009.6 1009.4 0.0
18/12:30pm 31.4 33.3 21.3 55 6.8 ENE 13 24 7 13 1010.0 1009.8 0.0
18/12:00pm 29.9 31.4 20.5 57 6.2 E 13 24 7 13 1010.5 1010.4 0.0
18/11:30am 30.0 31.8 21.1 59 5.9 NE 13 20 7 11 1011.0 1010.9 0.0
18/11:00am 30.6 32.6 20.8 56 6.5 NE 11 17 6 9 1011.6 1011.5 0.0
18/10:30am 29.7 31.5 21.1 60 5.7 E 13 19 7 10 1011.8 1011.7 0.0
18/10:00am 30.3 32.2 21.4 59 6.0 ESE 13 22 7 12 1011.7 1011.6 0.0
18/09:30am 28.5 29.8 20.2 60 5.5 ENE 13 19 7 10 1011.6 1011.5 0.0
18/09:00am 28.5 31.2 21.3 65 4.8 NE 9 15 5 8 1011.8 1011.7 0.0
18/08:30am 28.2 30.4 21.2 65 4.7 NE 11 17 6 9 1012.0 1011.9 0.0
18/08:00am 27.1 29.7 21.2 70 3.9 NNE 9 15 5 8 1011.9 1011.8 0.0
18/07:30am 27.7 29.8 21.7 70 4.0 NE 13 17 7 9 1011.7 1011.6 0.0
18/07:00am 26.4 28.7 21.4 74 3.3 ENE 11 13 6 7 1011.6 1011.5 0.0
18/06:30am 25.7 29.6 22.6 83 2.1 NE 6 11 3 6 1011.3 1011.2 0.0

Latest Capital City Observations: Canberra | Sydney | Melbourne | Brisbane | Adelaide | Perth | Hobart | Darwin

Other formats

Comma delimited format used in spreadsheet applications
http://www.bom.gov.au/fwo/IDQ60901/IDQ60901.94568.axf

JavaScript Object Notation format (JSON) in row-major order
http://www.bom.gov.au/fwo/IDQ60901/IDQ60901.94568.json

Data quality

Most of these data are generated automatically and are frequently updated. Quality checks on data are not normally performed. It is possible for incorrect values to appear. Refer to information at About Latest Weather Observations and please check the disclaimer before using these data.